Alex, Louisiana
Current Conditions -  °F | °C
As of 3:53 AM on Thursday 29 Jan 2015 (Local Time) from KAEX Reporting Station
Overcast Overcast  
Wind Chill: 13°   Ceiling: 800
Heat Index: 13°   Visibility: 7mi
Dew Point: 12°   Wind: 7mph
Humidity: 93%   Direction: 200°SSW
Pressure: 30.17"   Gusts: NA
Location:  31.2081°N, 92.3683°W
Report Text: KAEX 290953Z 20006KT 7SM OVC008 13/12 A3017 RMK AO2 SLP221 T01280117
Loading
Personal Weather Stations






























Interactive Weather Map New forecast layout! Learn more

10-Day Weather Forecast

Advertisements
Track Severe Weather on mobile